Time;durP1;ratioP1;P1;durP2;ratioP2;P2;SDS_P1;SDS_P2;PMS_P1;PMS_P2;Temp;Humidity;BMP_temperature;BMP_pressure;BME280_temperature;BME280_humidity;BME280_pressure;Samples;Min_cycle;Max_cycle;Signal;HPM_P1;HPM_P2
2023/03/18 00:02:03;;;;;;;11.70;9.40;;;;;;;3.66;77.15;100707.18;107239;1254;61026;-75
2023/03/18 00:04:32;;;;;;;13.20;10.10;;;;;;;3.73;77.01;100712.14;106550;1252;72999;-74
2023/03/18 00:07:00;;;;;;;12.00;10.10;;;;;;;3.73;77.30;100706.36;106630;1256;69705;-75
2023/03/18 00:09:34;;;;;;;13.60;10.20;;;;;;;3.73;77.28;100706.39;106986;1253;73865;-78
2023/03/18 00:12:03;;;;;;;13.50;10.70;;;;;;;3.73;77.27;100704.29;106935;1254;60753;-76
2023/03/18 00:14:34;;;;;;;13.40;10.80;;;;;;;3.73;77.18;100707.62;106813;1254;59984;-74
2023/03/18 00:17:06;;;;;;;11.70;10.30;;;;;;;3.72;76.98;100710.49;107263;1253;73895;-78
2023/03/18 00:19:36;;;;;;;13.30;10.40;;;;;;;3.68;77.12;100709.14;108512;1252;68479;-79
2023/03/18 00:22:07;;;;;;;11.80;9.00;;;;;;;3.68;76.86;100710.04;108439;1254;72503;-80
2023/03/18 00:24:37;;;;;;;11.40;9.00;;;;;;;3.79;76.69;100710.73;108319;1252;60022;-79
2023/03/18 00:27:05;;;;;;;13.10;9.80;;;;;;;3.82;76.51;100709.52;108443;1253;59064;-80
2023/03/18 00:29:38;;;;;;;14.10;10.10;;;;;;;3.81;76.81;100711.52;108778;1253;73942;-82
2023/03/18 00:32:08;;;;;;;13.50;10.90;;;;;;;3.82;76.83;100710.52;107748;1253;68662;-79
2023/03/18 00:34:36;;;;;;;12.10;10.10;;;;;;;3.83;76.42;100709.03;107699;1254;70518;-79
2023/03/18 00:37:05;;;;;;;12.70;10.30;;;;;;;3.84;76.66;100708.44;107359;1252;60476;-78
2023/03/18 00:39:36;;;;;;;14.50;12.00;;;;;;;3.84;76.58;100707.08;107622;1253;59377;-77
2023/03/18 00:42:09;;;;;;;13.60;10.50;;;;;;;3.83;76.46;100702.39;108174;1252;73784;-78
2023/03/18 00:44:38;;;;;;;12.70;9.70;;;;;;;3.94;76.16;100700.64;109534;1252;68211;-76
2023/03/18 00:47:13;;;;;;;12.80;9.80;;;;;;;4.00;76.34;100702.36;108957;1253;71410;-79
2023/03/18 00:49:42;;;;;;;13.00;10.40;;;;;;;3.99;76.11;100705.60;108681;1252;60206;-78
2023/03/18 00:52:10;;;;;;;13.60;10.60;;;;;;;3.96;75.92;100708.55;109045;1252;60322;-78
2023/03/18 00:54:39;;;;;;;16.40;10.90;;;;;;;3.93;76.05;100705.92;108489;1253;72668;-79
2023/03/18 00:57:09;;;;;;;13.80;10.90;;;;;;;3.93;76.02;100713.15;108334;1254;68512;-78
2023/03/18 00:59:39;;;;;;;12.60;9.80;;;;;;;3.92;75.81;100709.54;107905;1253;71646;-75
2023/03/18 01:02:07;;;;;;;13.60;10.20;;;;;;;3.88;75.85;100709.93;107049;1254;60878;-76
2023/03/18 01:04:37;;;;;;;14.40;9.40;;;;;;;3.95;75.74;100713.71;107557;1252;61312;-79
2023/03/18 01:07:05;;;;;;;12.50;9.40;;;;;;;3.99;75.65;100712.05;108058;1253;71712;-76
2023/03/18 01:09:42;;;;;;;11.10;8.60;;;;;;;3.94;75.71;100710.63;108185;1252;71497;-75
2023/03/18 01:12:10;;;;;;;10.30;8.60;;;;;;;3.90;75.82;100713.86;107212;1254;72646;-77
2023/03/18 01:14:39;;;;;;;11.90;9.10;;;;;;;3.86;75.85;100710.77;108083;1254;59669;-78
2023/03/18 01:17:08;;;;;;;10.10;8.30;;;;;;;3.83;75.99;100711.01;108962;1253;60431;-79
2023/03/18 01:19:39;;;;;;;10.50;8.70;;;;;;;3.77;75.93;100721.52;109126;1252;75114;-76
2023/03/18 01:22:08;;;;;;;10.10;8.50;;;;;;;3.72;75.98;100719.72;109239;1253;69665;-77
2023/03/18 01:24:41;;;;;;;11.60;8.70;;;;;;;3.71;75.96;100727.02;108868;1253;72345;-78
2023/03/18 01:27:10;;;;;;;10.80;9.20;;;;;;;3.82;75.68;100727.55;109251;1253;61079;-79
2023/03/18 01:29:42;;;;;;;10.60;8.80;;;;;;;3.90;75.74;100727.33;108995;1252;58386;-78
2023/03/18 01:32:15;;;;;;;14.10;10.00;;;;;;;3.93;76.05;100735.91;109340;1253;71733;-77
2023/03/18 01:34:43;;;;;;;13.40;11.00;;;;;;;3.93;75.78;100734.72;109227;1252;68329;-76
2023/03/18 01:37:12;;;;;;;13.20;10.50;;;;;;;3.93;75.72;100730.13;109172;1252;71696;-78
2023/03/18 01:39:45;;;;;;;13.20;10.40;;;;;;;3.93;75.95;100726.44;108650;1254;59336;-75
2023/03/18 01:42:21;;;;;;;15.80;11.40;;;;;;;3.93;75.90;100729.06;108214;1252;59100;-75
2023/03/18 01:44:49;;;;;;;14.80;11.80;;;;;;;3.92;75.59;100730.73;109458;1252;73038;-75
2023/03/18 01:47:19;;;;;;;12.90;10.30;;;;;;;3.90;75.40;100728.19;109418;1252;70071;-76
2023/03/18 01:49:53;;;;;;;10.50;9.00;;;;;;;4.00;75.26;100726.17;108888;1253;73849;-76
2023/03/18 01:52:24;;;;;;;12.60;10.80;;;;;;;4.05;75.19;100732.33;109183;1252;60190;-75
2023/03/18 01:54:57;;;;;;;12.20;10.00;;;;;;;4.01;75.30;100731.20;109085;1252;59649;-78
2023/03/18 01:57:29;;;;;;;13.60;9.60;;;;;;;3.97;75.57;100733.36;109394;1254;73892;-74
2023/03/18 01:59:58;;;;;;;13.40;9.60;;;;;;;3.94;75.23;100735.85;109321;1252;68523;-78
2023/03/18 02:02:27;;;;;;;12.30;10.30;;;;;;;3.88;75.20;100740.94;108908;1252;71785;-77
2023/03/18 02:04:58;;;;;;;14.20;10.70;;;;;;;3.86;75.50;100744.10;108040;1254;59628;-79
2023/03/18 02:07:31;;;;;;;11.40;9.40;;;;;;;3.83;75.34;100745.02;107491;1254;60527;-79
2023/03/18 02:10:03;;;;;;;13.20;8.90;;;;;;;3.91;75.59;100741.48;107355;1256;72986;-79
2023/03/18 02:12:34;;;;;;;10.80;8.70;;;;;;;3.98;75.31;100742.27;107355;1256;69465;-76
2023/03/18 02:15:07;;;;;;;12.90;9.60;;;;;;;3.95;75.28;100746.80;107426;1254;74367;-78
2023/03/18 02:17:48;;;;;;;11.60;8.90;;;;;;;3.93;75.44;100748.34;107967;1253;60302;-79
2023/03/18 02:20:56;;;;;;;11.80;9.80;;;;;;;3.90;74.99;100754.52;109365;1254;60211;-79
2023/03/18 02:23:28;;;;;;;11.70;9.10;;;;;;;3.84;74.89;100756.88;109282;1252;73722;-78
2023/03/18 02:26:24;;;;;;;12.00;8.90;;;;;;;3.76;74.82;100760.14;109055;1252;68262;-78
2023/03/18 02:28:53;;;;;;;10.70;7.90;;;;;;;3.68;74.44;100765.25;109136;1252;72633;-79
2023/03/18 02:31:22;;;;;;;10.90;7.00;;;;;;;3.71;74.52;100762.05;107470;1254;61811;-77
2023/03/18 02:33:53;;;;;;;11.50;7.70;;;;;;;3.72;74.34;100763.76;108414;1252;60760;-77
2023/03/18 02:36:24;;;;;;;10.20;7.60;;;;;;;3.67;74.53;100768.10;108559;1256;72044;-72
2023/03/18 02:38:52;;;;;;;11.10;7.90;;;;;;;3.64;74.59;100769.73;108352;1253;70265;-71
2023/03/18 02:41:30;;;;;;;12.30;7.80;;;;;;;3.60;74.75;100767.14;108957;1253;71342;-71
2023/03/18 02:43:58;;;;;;;10.70;7.90;;;;;;;3.57;74.58;100771.55;108968;1252;58411;-74
2023/03/18 02:47:03;;;;;;;11.00;6.70;;;;;;;3.53;74.60;100775.42;109092;1252;58051;-74
2023/03/18 02:49:33;;;;;;;11.40;8.10;;;;;;;3.49;74.55;100775.85;108789;1252;73767;-73
2023/03/18 02:52:01;;;;;;;12.70;7.20;;;;;;;3.47;74.38;100775.70;108565;1253;69333;-72
2023/03/18 02:54:31;;;;;;;10.20;6.30;;;;;;;3.55;74.30;100777.06;108673;1253;70950;-73
2023/03/18 02:57:01;;;;;;;10.10;7.00;;;;;;;3.63;74.06;100771.69;109124;1252;59244;-73
2023/03/18 02:59:34;;;;;;;10.70;6.80;;;;;;;3.62;74.17;100777.21;109047;1252;61353;-73
2023/03/18 03:02:03;;;;;;;10.70;6.80;;;;;;;3.57;73.99;100772.09;109096;1252;72119;-75
2023/03/18 03:04:31;;;;;;;9.40;6.30;;;;;;;3.54;74.29;100775.59;109054;1253;68260;-73
2023/03/18 03:07:01;;;;;;;9.60;6.70;;;;;;;3.52;74.24;100775.52;109301;1252;71585;-74
2023/03/18 03:09:40;;;;;;;10.30;7.20;;;;;;;3.51;74.17;100777.85;109129;1253;57859;-75
2023/03/18 03:12:12;;;;;;;10.40;6.80;;;;;;;3.49;74.27;100777.98;108987;1258;58313;-74
2023/03/18 03:14:46;;;;;;;10.60;7.00;;;;;;;3.46;74.26;100779.61;108954;1252;73123;-74
2023/03/18 03:17:16;;;;;;;11.30;6.40;;;;;;;3.42;74.00;100782.14;108049;1253;70628;-71
2023/03/18 03:19:47;;;;;;;11.10;7.00;;;;;;;3.49;74.12;100784.11;107527;1253;72425;-73
2023/03/18 03:22:16;;;;;;;8.80;6.20;;;;;;;3.53;73.97;100780.88;107951;1253;60594;-74
2023/03/18 03:24:47;;;;;;;9.20;6.60;;;;;;;3.49;73.93;100782.69;108167;1254;60454;-74
2023/03/18 03:27:16;;;;;;;8.00;5.90;;;;;;;3.47;74.17;100784.30;109256;1253;72971;-73
2023/03/18 03:29:45;;;;;;;9.90;6.90;;;;;;;3.46;74.28;100785.89;109498;1252;69612;-74
2023/03/18 03:32:13;;;;;;;9.60;7.20;;;;;;;3.45;73.99;100790.00;109514;1252;71403;-75
2023/03/18 03:34:42;;;;;;;8.50;5.90;;;;;;;3.43;73.95;100792.23;109460;1254;59340;-74
2023/03/18 03:37:19;;;;;;;10.90;6.70;;;;;;;3.41;73.96;100793.77;109387;1252;59022;-70
2023/03/18 03:39:49;;;;;;;9.80;6.40;;;;;;;3.35;73.89;100792.55;109244;1253;73585;-71
2023/03/18 03:42:18;;;;;;;9.50;6.10;;;;;;;3.42;73.64;100791.25;109409;1252;69465;-75
2023/03/18 03:44:48;;;;;;;9.20;5.30;;;;;;;3.47;73.62;100792.66;109479;1252;71681;-75
2023/03/18 03:47:17;;;;;;;7.70;5.40;;;;;;;3.44;73.47;100795.46;109458;1253;59027;-74
2023/03/18 03:49:45;;;;;;;9.00;6.10;;;;;;;3.42;73.61;100791.58;109270;1252;58919;-73
2023/03/18 03:52:18;;;;;;;9.30;6.40;;;;;;;3.41;73.83;100792.14;109403;1252;71920;-76
2023/03/18 03:54:47;;;;;;;10.40;5.70;;;;;;;3.39;73.47;100792.48;109372;1258;69532;-77
2023/03/18 03:57:18;;;;;;;9.60;6.30;;;;;;;3.34;73.60;100795.35;109380;1253;72490;-73
2023/03/18 03:59:55;;;;;;;9.20;5.90;;;;;;;3.33;73.59;100793.73;107391;1254;60402;-74
2023/03/18 04:02:42;;;;;;;8.30;6.40;;;;;;;3.31;73.71;100791.55;106490;1253;60536;-72
2023/03/18 04:05:12;;;;;;;9.70;6.00;;;;;;;3.29;73.67;100793.28;106251;1254;74056;-76
2023/03/18 04:07:41;;;;;;;12.50;5.60;;;;;;;3.37;73.69;100794.87;106116;1254;71631;-73
2023/03/18 04:10:11;;;;;;;8.30;5.10;;;;;;;3.44;73.53;100799.17;106132;1256;71442;-73
2023/03/18 04:12:40;;;;;;;7.70;5.10;;;;;;;3.41;73.67;100795.33;106077;1253;61442;-74
2023/03/18 04:15:08;;;;;;;8.30;5.40;;;;;;;3.37;73.87;100798.38;106064;1254;60590;-74
2023/03/18 04:17:38;;;;;;;9.00;6.10;;;;;;;3.32;73.86;100800.59;105939;1258;75232;-74
2023/03/18 04:20:06;;;;;;;7.90;5.70;;;;;;;3.31;73.88;100801.71;106074;1256;69871;-74
2023/03/18 04:22:43;;;;;;;11.90;6.70;;;;;;;3.28;73.93;100803.46;106207;1254;74002;-73
2023/03/18 04:25:13;;;;;;;9.20;6.30;;;;;;;3.23;73.95;100799.58;106970;1256;60514;-73
2023/03/18 04:27:42;;;;;;;9.30;6.30;;;;;;;3.19;74.00;100799.64;105996;1254;60527;-73
2023/03/18 04:30:12;;;;;;;9.90;6.10;;;;;;;3.18;74.13;100799.73;106073;1252;73188;-73
2023/03/18 04:32:55;;;;;;;8.30;5.50;;;;;;;3.28;74.03;100798.93;105960;1256;70599;-72
2023/03/18 04:35:31;;;;;;;9.50;6.40;;;;;;;3.33;74.08;100801.79;105837;1256;74188;-72
2023/03/18 04:38:00;;;;;;;8.90;6.40;;;;;;;3.30;74.28;100802.30;106045;1256;60482;-71
2023/03/18 04:40:28;;;;;;;9.80;6.20;;;;;;;3.27;74.28;100799.84;106007;1257;60493;-73
2023/03/18 04:42:58;;;;;;;9.90;6.50;;;;;;;3.25;74.12;100798.41;106010;1256;74897;-72
2023/03/18 04:45:28;;;;;;;7.80;6.00;;;;;;;3.22;74.25;100802.27;105985;1256;69403;-71
2023/03/18 04:48:03;;;;;;;9.60;6.50;;;;;;;3.18;74.21;100800.58;105880;1256;74009;-74
2023/03/18 04:50:34;;;;;;;9.50;6.90;;;;;;;3.14;74.24;100801.52;106057;1256;60542;-74
2023/03/18 04:53:03;;;;;;;9.40;6.90;;;;;;;3.12;74.26;100801.66;106066;1254;60428;-76
2023/03/18 04:55:33;;;;;;;9.20;6.10;;;;;;;3.18;74.14;100801.80;106061;1258;73103;-76
2023/03/18 04:58:02;;;;;;;10.20;6.20;;;;;;;3.26;74.18;100799.59;107099;1254;71330;-75
2023/03/18 05:00:36;;;;;;;;;;;;;;;3.24;74.32;100802.13;107253;1253;72696;-75
2023/03/18 05:03:15;;;;;;;11.80;6.20;;;;;;;3.22;74.30;100805.98;107285;1259;60381;-77
2023/03/18 05:05:44;;;;;;;8.90;6.10;;;;;;;3.21;74.46;100808.44;107026;1254;60466;-75
2023/03/18 05:08:15;;;;;;;10.20;6.10;;;;;;;3.23;74.27;100809.36;106787;1253;72783;-77
2023/03/18 05:10:44;;;;;;;10.50;6.80;;;;;;;3.25;74.15;100809.78;107338;1254;70051;-76
2023/03/18 05:13:16;;;;;;;10.10;6.60;;;;;;;3.26;74.15;100809.17;106864;1253;71333;-74
2023/03/18 05:15:44;;;;;;;10.00;6.10;;;;;;;3.26;74.25;100817.42;108117;1254;60415;-75
2023/03/18 05:18:13;;;;;;;9.60;5.70;;;;;;;3.30;73.92;100820.52;108013;1254;60509;-72
2023/03/18 05:20:42;;;;;;;8.70;5.70;;;;;;;3.43;73.66;100817.27;107633;1254;73784;-74
2023/03/18 05:23:13;;;;;;;7.00;5.30;;;;;;;3.46;73.57;100816.73;107055;1254;69418;-74
2023/03/18 05:25:47;;;;;;;9.30;6.40;;;;;;;3.47;73.52;100817.05;106050;1256;72623;-75
2023/03/18 05:28:19;;;;;;;7.50;5.30;;;;;;;3.50;73.62;100813.84;106202;1256;60536;-74
2023/03/18 05:31:07;;;;;;;7.30;5.30;;;;;;;3.55;73.41;100815.79;106116;1254;61343;-78
2023/03/18 05:33:41;;;;;;;8.60;5.90;;;;;;;3.57;72.85;100818.36;107183;1254;75055;-78
2023/03/18 05:36:11;;;;;;;7.40;5.40;;;;;;;3.57;73.03;100813.60;106194;1256;69396;-75
2023/03/18 05:38:50;;;;;;;9.40;5.50;;;;;;;3.59;72.69;100814.71;105847;1254;72993;-76
2023/03/18 05:41:19;;;;;;;11.10;5.70;;;;;;;3.56;72.53;100814.67;106333;1256;60418;-74
2023/03/18 05:43:47;;;;;;;8.20;5.40;;;;;;;3.54;72.53;100816.89;107498;1254;59407;-74
2023/03/18 05:46:16;;;;;;;7.40;5.00;;;;;;;3.57;72.66;100817.60;106271;1259;72880;-74
2023/03/18 05:48:52;;;;;;;8.60;4.90;;;;;;;3.71;72.30;100816.59;105969;1256;68635;-76
2023/03/18 05:51:21;;;;;;;8.50;5.30;;;;;;;3.83;72.07;100817.52;106114;1256;73703;-77
2023/03/18 05:53:50;;;;;;;7.20;5.10;;;;;;;3.90;72.27;100820.62;105986;1257;60424;-74
2023/03/18 05:56:29;;;;;;;9.20;5.20;;;;;;;3.94;71.99;100826.11;106012;1254;61465;-75
2023/03/18 05:59:00;;;;;;;15.00;5.90;;;;;;;3.98;71.85;100825.33;106010;1256;75074;-77
2023/03/18 06:01:36;;;;;;;9.30;5.70;;;;;;;3.99;71.43;100828.25;106069;1256;68250;-77
2023/03/18 06:04:07;;;;;;;8.80;6.70;;;;;;;3.97;71.57;100832.45;106091;1256;72580;-80
2023/03/18 06:06:38;;;;;;;9.50;6.20;;;;;;;3.94;71.40;100832.93;106704;1254;60908;-78
2023/03/18 06:09:10;;;;;;;9.70;6.30;;;;;;;3.93;71.36;100838.27;107337;1253;60313;-85
2023/03/18 06:11:43;;;;;;;9.00;5.70;;;;;;;3.93;71.04;100837.20;109474;1253;71957;-78
2023/03/18 06:14:11;;;;;;;8.20;5.40;;;;;;;3.93;71.13;100837.52;109318;1253;69017;-78
2023/03/18 06:16:40;;;;;;;5.80;4.60;;;;;;;4.00;70.97;100842.39;108271;1254;72912;-80
2023/03/18 06:19:10;;;;;;;5.80;4.40;;;;;;;4.12;70.78;100843.04;108482;1252;60438;-79
2023/03/18 06:21:38;;;;;;;5.40;3.80;;;;;;;4.13;70.87;100848.89;107477;1254;60379;-78
2023/03/18 06:24:10;;;;;;;8.60;5.30;;;;;;;4.14;70.93;100846.58;107055;1253;76600;-76
2023/03/18 06:26:40;;;;;;;8.30;5.80;;;;;;;4.17;70.82;100843.39;106301;1254;69529;-77
2023/03/18 06:29:09;;;;;;;8.60;6.20;;;;;;;4.18;70.41;100846.51;106262;1253;73838;-80
2023/03/18 06:31:38;;;;;;;7.60;5.50;;;;;;;4.20;70.75;100849.91;106739;1253;60440;-78
2023/03/18 06:34:11;;;;;;;13.70;5.90;;;;;;;4.23;70.37;100844.77;106935;1254;60562;-79
2023/03/18 06:36:41;;;;;;;7.50;5.10;;;;;;;4.25;70.42;100846.90;107266;1256;74663;-79
2023/03/18 06:39:12;;;;;;;9.20;5.40;;;;;;;4.28;70.29;100845.34;107478;1253;70048;-80
2023/03/18 06:41:41;;;;;;;8.20;4.80;;;;;;;4.30;70.04;100845.17;107418;1256;70722;-80
2023/03/18 06:44:29;;;;;;;6.00;4.50;;;;;;;4.29;70.09;100849.62;107821;1253;59269;-81
2023/03/18 06:47:04;;;;;;;6.60;4.50;;;;;;;4.28;69.83;100851.13;107208;1256;59686;-79
2023/03/18 06:49:36;;;;;;;8.40;4.60;;;;;;;4.27;69.70;100849.60;106172;1254;73720;-81
2023/03/18 06:52:09;;;;;;;5.50;4.10;;;;;;;4.35;69.87;100853.05;106253;1254;71153;-80
2023/03/18 06:54:39;;;;;;;8.70;4.80;;;;;;;4.47;69.88;100850.72;106205;1254;72927;-80
2023/03/18 06:57:09;;;;;;;7.20;5.70;;;;;;;4.50;69.75;100850.48;106190;1256;60952;-79
2023/03/18 06:59:39;;;;;;;8.80;5.20;;;;;;;4.54;69.66;100849.96;106222;1254;60450;-80
2023/03/18 07:02:09;;;;;;;8.30;5.00;;;;;;;4.56;69.54;100854.91;106332;1256;74826;-80
2023/03/18 07:04:37;;;;;;;6.70;5.20;;;;;;;4.53;69.22;100856.13;108693;1254;70661;-81
2023/03/18 07:07:06;;;;;;;6.10;5.00;;;;;;;4.45;69.00;100852.08;109540;1252;71823;-83
2023/03/18 07:09:35;;;;;;;10.20;5.40;;;;;;;4.39;69.24;100852.46;108892;1252;60646;-82
2023/03/18 07:12:08;;;;;;;7.30;4.40;;;;;;;4.39;69.48;100851.80;108205;1252;60600;-83
2023/03/18 07:14:38;;;;;;;6.30;4.30;;;;;;;4.37;69.33;100847.71;108778;1252;73901;-75
2023/03/18 07:17:08;;;;;;;8.60;4.60;;;;;;;4.41;69.50;100846.40;107644;1254;71458;-80
2023/03/18 07:19:42;;;;;;;5.80;4.40;;;;;;;4.46;69.36;100851.35;106204;1254;73150;-76
2023/03/18 07:22:10;;;;;;;10.40;4.40;;;;;;;4.51;69.51;100844.67;106067;1254;60543;-79
2023/03/18 07:24:39;;;;;;;7.20;4.80;;;;;;;4.57;69.05;100850.98;106500;1254;61354;-76
2023/03/18 07:27:12;;;;;;;8.20;4.90;;;;;;;4.63;69.40;100853.73;106594;1256;74121;-79
2023/03/18 07:29:41;;;;;;;8.70;4.80;;;;;;;4.70;69.22;100851.48;106062;1254;69760;-77
2023/03/18 07:32:10;;;;;;;7.60;4.90;;;;;;;4.74;68.66;100849.45;106034;1256;72218;-79
2023/03/18 07:34:39;;;;;;;4.70;3.50;;;;;;;4.88;68.81;100849.88;106123;1254;62428;-82
2023/03/18 07:37:08;;;;;;;10.00;5.30;;;;;;;5.04;68.54;100852.55;106240;1253;60642;-79
2023/03/18 07:39:37;;;;;;;6.80;4.90;;;;;;;5.06;68.12;100854.47;106049;1255;72913;-77
2023/03/18 07:42:06;;;;;;;6.40;4.90;;;;;;;5.03;68.25;100852.21;106375;1253;71801;-78
2023/03/18 07:44:34;;;;;;;6.10;4.50;;;;;;;5.04;68.24;100853.90;105990;1254;73814;-79
2023/03/18 07:47:03;;;;;;;5.80;5.00;;;;;;;5.07;68.23;100856.70;105965;1257;60541;-77
2023/03/18 07:49:31;;;;;;;7.80;4.80;;;;;;;5.12;68.16;100852.70;105890;1254;61681;-77
2023/03/18 07:52:02;;;;;;;6.50;4.60;;;;;;;5.14;68.07;100850.26;106039;1254;73494;-76
2023/03/18 07:54:31;;;;;;;7.10;5.00;;;;;;;5.17;68.17;100852.13;106119;1254;71583;-75
2023/03/18 07:57:00;;;;;;;7.40;4.90;;;;;;;5.19;68.08;100849.95;106157;1257;73306;-78
2023/03/18 07:59:29;;;;;;;5.60;4.40;;;;;;;5.23;67.99;100848.94;109048;1254;58737;-76
2023/03/18 08:01:57;;;;;;;6.50;4.60;;;;;;;5.31;68.00;100850.31;109529;1255;59166;-81
2023/03/18 08:04:26;;;;;;;8.80;4.80;;;;;;;5.40;67.74;100849.52;107008;1254;73752;-78
2023/03/18 08:06:54;;;;;;;5.90;5.00;;;;;;;5.46;67.84;100848.01;106475;1253;69865;-75
2023/03/18 08:09:23;;;;;;;7.20;5.00;;;;;;;5.55;67.82;100844.39;106193;1254;73845;-78
2023/03/18 08:11:58;;;;;;;5.80;4.50;;;;;;;5.69;67.66;100846.42;106036;1256;60518;-78
2023/03/18 08:14:26;;;;;;;6.80;4.90;;;;;;;5.81;67.18;100850.84;106056;1254;61213;-77
2023/03/18 08:16:54;;;;;;;8.60;5.00;;;;;;;5.89;67.23;100847.92;106062;1257;74133;-77
2023/03/18 08:19:22;;;;;;;7.80;5.20;;;;;;;6.01;66.93;100850.66;106250;1254;70245;-76
2023/03/18 08:21:51;;;;;;;6.90;5.10;;;;;;;6.12;66.85;100848.98;106284;1256;73546;-77
2023/03/18 08:24:20;;;;;;;7.50;4.60;;;;;;;6.20;66.22;100845.73;106047;1256;60462;-77
2023/03/18 08:26:49;;;;;;;4.60;4.20;;;;;;;6.24;65.91;100852.13;105929;1254;266082;-78
2023/03/18 08:30:38;;;;;;;7.20;4.60;;;;;;;6.27;65.68;100850.52;103783;1286;602604;-75
2023/03/18 08:33:05;;;;;;;6.30;4.70;;;;;;;6.30;65.79;100852.75;105982;1257;59849;-75
2023/03/18 08:35:32;;;;;;;7.80;5.10;;;;;;;6.33;65.55;100848.51;105965;1259;59392;-79
2023/03/18 08:38:05;;;;;;;5.90;4.60;;;;;;;6.36;65.31;100846.20;106093;1256;71424;-80
2023/03/18 08:40:33;;;;;;;7.10;4.20;;;;;;;6.34;65.16;100851.05;105960;1256;70850;-77
2023/03/18 08:43:00;;;;;;;5.70;4.30;;;;;;;6.29;65.06;100850.37;105744;1253;184288;-79
2023/03/18 08:45:27;;;;;;;6.00;4.90;;;;;;;6.24;65.21;100848.41;106969;1253;59154;-78
2023/03/18 08:47:54;;;;;;;5.20;4.40;;;;;;;6.25;65.43;100848.38;108244;1258;58288;-76
2023/03/18 08:50:28;;;;;;;5.00;4.10;;;;;;;6.29;65.38;100849.63;105855;1258;72527;-77
2023/03/18 08:52:58;;;;;;;5.40;4.40;;;;;;;6.35;65.24;100848.91;107070;1252;71660;-79
2023/03/18 08:55:38;;;;;;;5.10;4.60;;;;;;;6.41;65.05;100849.67;108909;1251;72433;-77
2023/03/18 08:58:07;;;;;;;4.90;3.90;;;;;;;6.43;65.00;100843.15;107747;1253;59743;-76
2023/03/18 09:00:35;;;;;;;7.50;4.60;;;;;;;6.47;64.87;100840.22;106326;1256;59521;-75
2023/03/18 09:03:03;;;;;;;5.50;4.40;;;;;;;6.54;64.54;100840.80;106557;1254;72574;-81
2023/03/18 09:05:31;;;;;;;5.30;4.50;;;;;;;6.60;64.84;100838.70;106630;1254;69674;-81
2023/03/18 09:07:59;;;;;;;6.80;5.10;;;;;;;6.70;64.65;100842.23;106076;1254;72458;-76
2023/03/18 09:10:26;;;;;;;6.00;5.20;;;;;;;6.77;64.47;100842.92;105954;1254;60502;-76
2023/03/18 09:12:54;;;;;;;5.80;4.60;;;;;;;6.85;64.44;100840.54;105964;1254;60398;-79
2023/03/18 09:15:21;;;;;;;4.90;4.30;;;;;;;6.92;64.22;100839.50;106604;1254;71938;-76
2023/03/18 09:17:49;;;;;;;5.40;4.60;;;;;;;6.98;63.96;100839.59;107626;1254;71674;-76
2023/03/18 09:20:36;;;;;;;5.80;4.20;;;;;;;6.99;63.81;100840.15;106048;1257;71699;-79
2023/03/18 09:23:04;;;;;;;6.00;3.80;;;;;;;6.97;63.59;100840.69;106380;1253;61605;-78
2023/03/18 09:25:35;;;;;;;7.10;4.00;;;;;;;6.90;63.56;100838.73;106383;1254;61840;-80
2023/03/18 09:28:03;;;;;;;5.10;4.20;;;;;;;6.87;63.81;100841.20;106058;1254;72144;-78
2023/03/18 09:30:32;;;;;;;6.70;4.50;;;;;;;6.87;63.56;100844.81;106274;1254;70609;-77
2023/03/18 09:33:00;;;;;;;4.50;4.00;;;;;;;6.82;63.92;100842.39;106471;1254;72442;-78
2023/03/18 09:35:37;;;;;;;5.30;4.30;;;;;;;6.80;63.75;100845.28;106239;1254;60547;-79
2023/03/18 09:38:06;;;;;;;5.30;4.60;;;;;;;6.79;64.05;100842.75;105995;1253;61741;-76
2023/03/18 09:40:35;;;;;;;5.40;4.00;;;;;;;6.76;63.86;100840.71;105985;1254;74277;-76
2023/03/18 09:43:23;;;;;;;5.00;4.40;;;;;;;6.73;64.13;100842.16;105957;1254;70428;-79
2023/03/18 09:46:16;;;;;;;9.30;4.70;;;;;;;6.73;63.98;100841.79;105944;1256;73493;-76
2023/03/18 09:49:09;;;;;;;5.80;3.80;;;;;;;6.74;63.85;100838.74;108375;1253;60714;-77
2023/03/18 09:51:54;;;;;;;5.00;4.50;;;;;;;6.70;63.76;100842.38;109336;1253;59581;-74
2023/03/18 09:54:41;;;;;;;5.50;4.00;;;;;;;6.64;63.93;100843.05;106595;1257;73109;-75
2023/03/18 09:57:16;;;;;;;4.80;3.80;;;;;;;6.59;64.20;100845.30;106389;1254;71316;-80
2023/03/18 09:59:44;;;;;;;6.80;3.60;;;;;;;6.58;64.29;100844.34;106176;1256;72408;-78
2023/03/18 10:02:26;;;;;;;5.30;4.10;;;;;;;6.59;64.31;100844.66;105932;1255;59717;-76
2023/03/18 10:04:56;;;;;;;8.80;4.30;;;;;;;6.56;64.37;100841.30;106020;1254;61372;-76
2023/03/18 10:07:39;;;;;;;9.00;4.40;;;;;;;6.53;64.44;100843.15;105909;1257;74011;-76
2023/03/18 10:10:31;;;;;;;5.00;3.80;;;;;;;6.52;64.46;100840.25;105993;1256;70270;-77
2023/03/18 10:13:28;;;;;;;5.70;3.60;;;;;;;6.48;64.52;100840.67;106044;1254;73516;-77
2023/03/18 10:15:56;;;;;;;4.90;3.20;;;;;;;6.47;64.50;100836.52;106127;1254;60303;-76
2023/03/18 10:18:30;;;;;;;5.80;4.20;;;;;;;6.48;64.71;100833.45;106215;1254;60455;-78
2023/03/18 10:21:26;;;;;;;6.50;3.90;;;;;;;6.51;64.66;100836.61;105865;1262;72988;-77
2023/03/18 10:24:08;;;;;;;4.90;3.80;;;;;;;6.52;64.55;100835.66;105628;1259;68376;-76
2023/03/18 10:26:42;;;;;;;5.40;3.40;;;;;;;6.52;64.52;100831.03;105985;1253;72301;-79
2023/03/18 10:29:20;;;;;;;4.90;3.00;;;;;;;6.52;64.39;100835.46;105986;1254;59652;-78
2023/03/18 10:32:14;;;;;;;4.10;2.90;;;;;;;6.57;64.30;100837.20;106087;1254;61256;-77
2023/03/18 10:34:44;;;;;;;5.50;3.10;;;;;;;6.65;64.03;100834.80;106325;1254;74207;-75
2023/03/18 10:37:53;;;;;;;4.30;3.20;;;;;;;6.71;63.99;100836.52;106106;1254;71056;-75
2023/03/18 10:40:21;;;;;;;4.40;3.20;;;;;;;6.80;63.70;100831.76;106086;1257;73673;-82
2023/03/18 10:42:50;;;;;;;3.90;3.30;;;;;;;6.85;63.42;100834.92;107305;1254;60587;-74
2023/03/18 10:45:22;;;;;;;5.30;3.10;;;;;;;6.94;63.22;100834.74;108770;1253;59226;-78
2023/03/18 10:48:00;;;;;;;4.50;3.20;;;;;;;7.02;62.89;100833.58;107550;1256;73128;-77
2023/03/18 10:50:36;;;;;;;4.60;3.10;;;;;;;7.10;62.57;100836.52;106157;1254;71398;-78
2023/03/18 10:53:08;;;;;;;5.40;4.00;;;;;;;7.14;62.40;100835.83;106239;1264;72502;-78
2023/03/18 10:55:48;;;;;;;9.40;3.50;;;;;;;7.19;62.46;100832.31;105917;1254;59704;-78
2023/03/18 10:58:16;;;;;;;5.30;3.70;;;;;;;7.22;62.03;100832.75;105906;1259;59487;-77
2023/03/18 11:00:45;;;;;;;4.70;3.30;;;;;;;7.22;62.06;100826.73;105845;1259;74847;-77
2023/03/18 11:03:19;;;;;;;4.20;3.60;;;;;;;7.25;61.82;100830.77;106009;1254;70654;-78
2023/03/18 11:05:46;;;;;;;4.60;3.40;;;;;;;7.21;61.64;100828.78;106048;1257;71745;-78
2023/03/18 11:08:31;;;;;;;5.00;3.50;;;;;;;7.15;61.82;100834.55;105766;1254;59870;-76
2023/03/18 11:11:19;;;;;;;4.90;3.30;;;;;;;7.17;61.91;100832.43;106004;1257;60502;-77
2023/03/18 11:13:54;;;;;;;4.80;3.70;;;;;;;7.23;61.79;100828.84;106110;1256;72338;-77
2023/03/18 11:16:32;;;;;;;4.30;2.90;;;;;;;7.29;61.73;100828.48;106136;1254;70579;-76
2023/03/18 11:19:07;;;;;;;4.10;2.90;;;;;;;7.42;61.44;100825.37;106104;1254;72023;-77
2023/03/18 11:21:38;;;;;;;3.80;2.60;;;;;;;7.57;61.13;100822.45;106046;1252;60390;-75
2023/03/18 11:24:35;;;;;;;9.20;2.70;;;;;;;7.73;60.48;100821.16;106082;1259;61008;-75
2023/03/18 11:27:02;;;;;;;5.10;3.50;;;;;;;7.92;60.42;100817.49;105984;1254;72197;-77
2023/03/18 11:29:33;;;;;;;5.00;3.30;;;;;;;8.20;60.05;100818.02;106149;1256;69661;-79
2023/03/18 11:32:00;;;;;;;4.30;3.60;;;;;;;8.65;59.62;100812.92;106392;1259;71623;-78
2023/03/18 11:34:30;;;;;;;5.40;3.40;;;;;;;9.13;58.70;100811.64;106928;1257;60568;-79
2023/03/18 11:37:02;;;;;;;3.50;2.70;;;;;;;9.71;57.58;100811.58;106548;1254;59663;-77
2023/03/18 11:39:31;;;;;;;3.20;2.90;;;;;;;10.44;56.44;100808.34;109358;1253;72116;-77
2023/03/18 11:41:58;;;;;;;3.90;2.90;;;;;;;11.32;55.35;100807.28;108644;1256;68396;-77
2023/03/18 11:44:30;;;;;;;4.80;3.20;;;;;;;12.13;53.60;100802.93;106387;1253;73945;-77
2023/03/18 11:47:21;;;;;;;4.50;3.00;;;;;;;12.87;51.01;100795.89;106729;1258;61599;-76